Time;durP1;ratioP1;P1;durP2;ratioP2;P2;SDS_P1;SDS_P2;PMS_P1;PMS_P2;Temp;Humidity;BMP_temperature;BMP_pressure;BME280_temperature;BME280_humidity;BME280_pressure;Samples;Min_cycle;Max_cycle;Signal;HPM_P1;HPM_P2
2022/01/11 00:00:10;;;;;;;63.88;34.65;;;2.40;99.90;;;;;;5092896;28;20020;-79
2022/01/11 00:02:40;;;;;;;63.00;34.50;;;2.40;99.90;;;;;;5092809;28;20051;-79
2022/01/11 00:05:07;;;;;;;67.03;33.70;;;2.30;99.90;;;;;;5093036;28;20052;-79
2022/01/11 00:07:35;;;;;;;62.97;33.80;;;2.40;99.90;;;;;;5092799;28;20024;-80
2022/01/11 00:10:01;;;;;;;62.95;35.08;;;2.30;99.90;;;;;;5092289;28;20031;-79
2022/01/11 00:12:27;;;;;;;59.67;32.92;;;2.20;99.90;;;;;;5092834;28;20388;-80
2022/01/11 00:14:53;;;;;;;65.57;33.92;;;2.20;99.90;;;;;;5092925;28;20035;-80
2022/01/11 00:17:18;;;;;;;64.30;35.10;;;2.20;99.90;;;;;;5091414;28;20027;-80
2022/01/11 00:19:47;;;;;;;67.95;35.42;;;2.20;99.90;;;;;;5092427;28;20515;-80
2022/01/11 00:22:18;;;;;;;59.85;35.25;;;2.20;99.90;;;;;;5092658;28;20040;-79
2022/01/11 00:24:44;;;;;;;63.40;34.55;;;2.20;99.90;;;;;;5092262;28;20054;-78
2022/01/11 00:27:10;;;;;;;63.70;36.00;;;2.30;99.90;;;;;;5092642;28;20024;-79
2022/01/11 00:29:44;;;;;;;68.30;34.78;;;2.10;99.90;;;;;;5092634;28;20028;-79
2022/01/11 00:32:24;;;;;;;56.22;33.45;;;2.20;99.90;;;;;;5075479;28;20139;-79
2022/01/11 00:34:52;;;;;;;64.45;35.78;;;2.10;99.90;;;;;;5092564;28;20469;-79
2022/01/11 00:37:20;;;;;;;63.28;35.63;;;2.10;99.90;;;;;;5091455;28;20134;-79
2022/01/11 00:39:47;;;;;;;62.03;34.75;;;2.10;99.90;;;;;;5092271;28;20032;-80
2022/01/11 00:42:14;;;;;;;64.57;36.25;;;2.20;99.90;;;;;;5092563;28;20031;-79
2022/01/11 00:44:40;;;;;;;67.53;38.40;;;2.20;99.90;;;;;;5092562;28;20115;-80
2022/01/11 00:47:06;;;;;;;75.15;36.33;;;2.20;99.90;;;;;;5092463;28;20047;-79
2022/01/11 00:49:34;;;;;;;59.90;35.85;;;2.20;99.90;;;;;;5092277;28;20055;-79
2022/01/11 00:51:59;;;;;;;61.80;36.05;;;2.20;99.90;;;;;;5092852;28;20028;-80
2022/01/11 00:54:26;;;;;;;62.92;35.75;;;2.30;99.90;;;;;;5094835;28;20501;-80
2022/01/11 00:56:51;;;;;;;61.15;35.97;;;2.40;99.90;;;;;;5096002;28;20019;-78
2022/01/11 00:59:17;;;;;;;60.75;35.30;;;2.40;99.90;;;;;;5096087;28;20047;-79
2022/01/11 01:01:43;;;;;;;54.70;32.90;;;2.40;99.90;;;;;;5095939;28;20051;-79
2022/01/11 01:04:10;;;;;;;56.65;34.15;;;2.40;99.90;;;;;;5096043;28;20028;-80
2022/01/11 01:06:39;;;;;;;57.35;33.47;;;2.50;99.90;;;;;;5094318;28;20024;-78
2022/01/11 01:09:06;;;;;;;58.03;34.25;;;2.40;99.90;;;;;;5094598;28;20027;-80
2022/01/11 01:11:36;;;;;;;54.65;33.35;;;2.30;99.90;;;;;;5078386;28;20027;-79
2022/01/11 01:14:02;;;;;;;68.40;33.92;;;2.30;99.90;;;;;;5094352;28;20028;-80
2022/01/11 01:16:28;;;;;;;56.97;31.38;;;2.20;99.90;;;;;;5094574;28;20046;-80
2022/01/11 01:19:08;;;;;;;71.00;34.22;;;2.20;99.90;;;;;;5094067;28;20028;-79
2022/01/11 01:21:38;;;;;;;67.82;34.97;;;2.20;99.90;;;;;;5077214;28;20046;-80
2022/01/11 01:24:09;;;;;;;58.65;32.20;;;2.20;99.90;;;;;;5094138;28;20028;-79
2022/01/11 01:26:35;;;;;;;65.07;35.35;;;2.20;99.90;;;;;;5095659;28;20032;-80
2022/01/11 01:29:01;;;;;;;54.20;32.90;;;2.30;99.90;;;;;;5094053;28;20484;-79
2022/01/11 01:31:27;;;;;;;60.63;32.75;;;2.30;99.90;;;;;;5094080;28;20525;-79
2022/01/11 01:33:54;;;;;;;58.83;33.03;;;2.30;99.90;;;;;;5095291;28;20016;-80
2022/01/11 01:36:20;;;;;;;58.40;32.33;;;2.30;99.90;;;;;;5093912;28;20122;-79
2022/01/11 01:38:46;;;;;;;53.17;32.13;;;2.30;99.90;;;;;;5095223;28;20024;-79
2022/01/11 01:41:15;;;;;;;55.45;31.55;;;2.20;99.90;;;;;;5094039;28;20035;-80
2022/01/11 01:43:43;;;;;;;52.33;33.03;;;2.20;99.90;;;;;;5093644;28;20472;-79
2022/01/11 01:46:10;;;;;;;53.25;32.88;;;2.20;99.90;;;;;;5095085;28;20036;-79
2022/01/11 01:48:36;;;;;;;51.78;32.58;;;2.20;99.90;;;;;;5093831;28;20016;-79
2022/01/11 01:51:05;;;;;;;57.63;34.65;;;2.10;99.90;;;;;;5094579;28;20028;-79
2022/01/11 01:53:31;;;;;;;61.22;32.60;;;2.10;99.90;;;;;;5095137;28;20032;-79
2022/01/11 01:55:57;;;;;;;56.75;31.52;;;2.20;99.90;;;;;;5093598;28;20104;-78
2022/01/11 01:58:25;;;;;;;56.78;32.88;;;2.20;99.90;;;;;;5093589;28;20024;-79
2022/01/11 02:00:54;;;;;;;54.22;31.35;;;2.10;99.90;;;;;;5093584;28;20023;-79
2022/01/11 02:03:29;;;;;;;54.40;31.80;;;2.10;99.90;;;;;;5076360;28;20455;-79
2022/01/11 02:05:56;;;;;;;53.42;32.40;;;2.00;99.90;;;;;;5092998;28;20024;-78
2022/01/11 02:08:25;;;;;;;57.80;32.22;;;1.90;99.90;;;;;;5093353;28;20032;-79
2022/01/11 02:10:52;;;;;;;56.25;31.35;;;1.90;99.90;;;;;;5093337;28;20032;-79
2022/01/11 02:13:18;;;;;;;56.38;30.35;;;2.10;99.90;;;;;;5093254;28;20526;-79
2022/01/11 02:15:44;;;;;;;53.80;32.00;;;2.10;99.90;;;;;;5081852;28;20082;-80
2022/01/11 02:18:15;;;;;;;58.28;32.15;;;2.00;99.90;;;;;;5072955;28;20021;-80
2022/01/11 02:20:45;;;;;;;54.80;31.33;;;2.10;99.90;;;;;;5072435;28;20028;-80
2022/01/11 02:23:14;;;;;;;56.53;32.03;;;2.00;99.90;;;;;;5072708;28;20036;-80
2022/01/11 02:25:40;;;;;;;58.38;31.90;;;1.90;99.90;;;;;;5075418;28;20062;-80
2022/01/11 02:28:10;;;;;;;57.08;31.83;;;1.90;99.90;;;;;;5093219;28;20027;-80
2022/01/11 02:30:36;;;;;;;50.08;30.13;;;2.00;99.90;;;;;;5092890;28;20047;-79
2022/01/11 02:33:06;;;;;;;65.35;31.00;;;2.00;99.90;;;;;;5094111;28;20488;-79
2022/01/11 02:35:32;;;;;;;52.72;31.05;;;2.00;99.90;;;;;;5076935;28;20039;-78
2022/01/11 02:37:58;;;;;;;54.40;29.45;;;1.90;99.90;;;;;;5099151;28;20028;-73
2022/01/11 02:40:24;;;;;;;51.45;29.77;;;2.00;99.90;;;;;;5102805;28;20029;-79
2022/01/11 02:42:50;;;;;;;51.40;28.25;;;2.00;99.90;;;;;;5100743;27;20040;-79
2022/01/11 02:45:20;;;;;;;50.80;28.60;;;2.00;99.90;;;;;;5094254;28;20032;-79
2022/01/11 02:47:48;;;;;;;43.83;23.77;;;2.10;99.90;;;;;;5092910;28;20028;-79
2022/01/11 02:50:17;;;;;;;43.83;27.88;;;2.10;99.90;;;;;;5092484;28;20032;-80
2022/01/11 02:52:46;;;;;;;50.97;28.42;;;2.00;99.90;;;;;;5092588;28;20027;-79
2022/01/11 02:55:15;;;;;;;56.67;29.67;;;2.00;99.90;;;;;;5075879;28;20031;-80
2022/01/11 02:57:42;;;;;;;51.92;29.83;;;2.00;99.90;;;;;;5092556;28;20024;-78
2022/01/11 03:00:19;;;;;;;49.25;27.50;;;2.00;99.90;;;;;;5092437;28;20030;-79
2022/01/11 03:02:46;;;;;;;53.17;28.55;;;2.00;99.90;;;;;;5092321;28;20043;-79
2022/01/11 03:05:15;;;;;;;43.60;26.58;;;1.90;99.90;;;;;;5092175;28;20052;-78
2022/01/11 03:07:43;;;;;;;52.60;30.17;;;1.90;99.90;;;;;;5093822;28;20051;-77
2022/01/11 03:12:49;;;;;;;44.28;26.90;;;1.90;99.90;;;;;;5092335;28;20028;-80
2022/01/11 03:15:15;;;;;;;45.30;29.13;;;2.00;99.90;;;;;;5091646;28;20034;-79
2022/01/11 03:17:45;;;;;;;47.63;27.67;;;2.00;99.90;;;;;;5091542;28;20024;-79
2022/01/11 03:20:11;;;;;;;45.67;27.40;;;2.00;99.90;;;;;;5091746;28;20546;-79
2022/01/11 03:22:37;;;;;;;45.95;25.85;;;2.00;99.90;;;;;;5092105;28;20020;-79
2022/01/11 03:25:06;;;;;;;41.67;24.45;;;1.90;99.90;;;;;;5091978;28;20489;-79
2022/01/11 03:27:34;;;;;;;41.70;25.33;;;2.00;99.90;;;;;;5092127;28;20020;-79
2022/01/11 03:30:03;;;;;;;44.40;25.90;;;2.10;99.90;;;;;;5091714;28;20115;-79
2022/01/11 03:32:30;;;;;;;45.97;26.48;;;2.00;99.90;;;;;;5075055;28;20024;-80
2022/01/11 03:34:55;;;;;;;42.47;26.13;;;2.00;99.90;;;;;;5091789;28;20043;-79
2022/01/11 03:37:21;;;;;;;43.30;26.13;;;2.10;99.90;;;;;;5093291;28;20400;-80
2022/01/11 03:39:48;;;;;;;45.28;26.20;;;2.10;99.90;;;;;;5091780;28;20028;-79
2022/01/11 03:42:15;;;;;;;48.47;27.17;;;2.10;99.90;;;;;;5091865;28;20020;-80
2022/01/11 03:44:41;;;;;;;47.42;26.00;;;2.10;99.90;;;;;;5091859;28;20039;-79
2022/01/11 03:47:08;;;;;;;44.08;25.70;;;2.10;99.90;;;;;;5092745;28;20028;-79
2022/01/11 03:49:33;;;;;;;40.25;25.17;;;2.10;99.90;;;;;;5091643;28;20032;-79
2022/01/11 03:51:59;;;;;;;43.20;24.95;;;2.10;99.90;;;;;;5091517;28;20361;-79
2022/01/11 03:54:42;;;;;;;40.10;23.85;;;2.00;99.90;;;;;;5091780;28;20122;-80
2022/01/11 03:57:17;;;;;;;40.83;23.15;;;2.00;99.90;;;;;;5091574;28;20055;-78
2022/01/11 03:59:46;;;;;;;41.92;23.58;;;1.90;99.90;;;;;;5091660;28;20028;-79
2022/01/11 04:02:12;;;;;;;44.90;24.90;;;1.80;99.90;;;;;;5090958;28;20031;-78
2022/01/11 04:04:38;;;;;;;40.38;24.50;;;1.80;99.90;;;;;;5092905;28;20388;-78
2022/01/11 04:07:04;;;;;;;41.33;23.40;;;1.80;99.90;;;;;;5091407;28;20028;-79
2022/01/11 04:09:30;;;;;;;43.65;24.65;;;1.80;99.90;;;;;;5091368;28;20031;-79
2022/01/11 04:11:57;;;;;;;41.03;23.67;;;1.80;99.90;;;;;;5091392;28;20051;-79
2022/01/11 04:14:25;;;;;;;45.33;24.20;;;1.90;99.90;;;;;;5091234;28;20059;-78
2022/01/11 04:16:53;;;;;;;46.58;25.38;;;1.90;99.90;;;;;;5091152;28;20111;-79
2022/01/11 04:19:22;;;;;;;42.97;25.33;;;1.90;99.90;;;;;;5091301;28;20169;-79
2022/01/11 04:21:48;;;;;;;42.03;25.90;;;2.00;99.90;;;;;;5091364;28;20416;-79
2022/01/11 04:24:14;;;;;;;41.25;24.75;;;1.90;99.90;;;;;;5091200;28;20032;-79
2022/01/11 04:26:41;;;;;;;41.92;25.42;;;1.90;99.90;;;;;;5091307;28;20115;-78
2022/01/11 04:29:07;;;;;;;41.15;26.52;;;1.80;99.90;;;;;;5095355;28;20565;-79
2022/01/11 04:31:33;;;;;;;43.65;26.15;;;1.90;99.90;;;;;;5095031;28;20070;-80
2022/01/11 04:33:59;;;;;;;56.50;28.33;;;2.00;99.90;;;;;;5095197;28;20028;-79
2022/01/11 04:36:25;;;;;;;46.67;26.90;;;2.10;99.90;;;;;;5095244;28;20153;-77
2022/01/11 04:38:51;;;;;;;46.20;26.45;;;2.10;99.90;;;;;;5095052;28;20115;-79
2022/01/11 04:41:17;;;;;;;45.05;27.77;;;2.10;99.90;;;;;;5095304;28;20123;-79
2022/01/11 04:43:48;;;;;;;52.15;26.85;;;2.10;99.90;;;;;;5095023;28;20429;-76
2022/01/11 04:46:18;;;;;;;43.85;25.17;;;2.00;99.90;;;;;;5094879;28;20123;-78
2022/01/11 04:48:45;;;;;;;46.20;25.25;;;2.00;99.90;;;;;;5094950;28;20028;-79
2022/01/11 04:51:11;;;;;;;42.67;25.30;;;2.00;99.90;;;;;;5096312;28;20024;-79
2022/01/11 04:53:37;;;;;;;46.53;26.58;;;2.00;99.90;;;;;;5094763;28;20026;-79
2022/01/11 04:56:03;;;;;;;44.10;24.80;;;1.90;99.90;;;;;;5094975;28;20024;-79
2022/01/11 04:58:29;;;;;;;45.90;25.20;;;1.80;99.90;;;;;;5094726;28;20495;-80
2022/01/11 05:00:55;;;;;;;44.15;24.20;;;1.90;99.90;;;;;;5094263;28;20031;-78
2022/01/11 05:03:21;;;;;;;39.05;23.48;;;1.80;99.90;;;;;;5094350;28;20039;-77
2022/01/11 05:05:52;;;;;;;46.63;25.05;;;1.80;99.90;;;;;;5094608;28;20024;-79
2022/01/11 05:08:18;;;;;;;38.05;22.25;;;1.80;99.90;;;;;;5094447;28;20384;-79
2022/01/11 05:10:44;;;;;;;41.28;24.02;;;1.90;99.90;;;;;;5094511;28;20040;-79
2022/01/11 05:13:15;;;;;;;43.40;22.35;;;1.90;99.90;;;;;;5094533;28;20126;-79
2022/01/11 05:15:43;;;;;;;39.95;22.67;;;1.90;99.90;;;;;;5094399;28;20020;-80
2022/01/11 05:18:10;;;;;;;43.00;23.35;;;1.80;99.90;;;;;;5094295;28;20032;-79
2022/01/11 05:20:37;;;;;;;39.60;23.60;;;1.80;99.90;;;;;;5094259;28;20141;-80
2022/01/11 05:23:05;;;;;;;43.47;22.98;;;1.80;99.90;;;;;;5094231;28;20032;-79
2022/01/11 05:25:31;;;;;;;39.42;22.23;;;1.70;99.90;;;;;;5077342;28;20024;-79
2022/01/11 05:27:59;;;;;;;42.20;23.08;;;1.80;99.90;;;;;;5093697;28;20023;-79
2022/01/11 05:30:26;;;;;;;37.53;22.65;;;1.70;99.90;;;;;;5094136;28;20488;-79
2022/01/11 05:32:52;;;;;;;41.97;22.98;;;1.60;99.90;;;;;;5094196;28;20097;-79
2022/01/11 05:35:20;;;;;;;42.75;23.23;;;1.50;99.90;;;;;;5095452;28;20491;-79
2022/01/11 05:37:46;;;;;;;41.80;23.63;;;1.50;99.90;;;;;;5095315;28;20050;-77
2022/01/11 05:40:13;;;;;;;40.38;21.48;;;1.50;99.90;;;;;;5092947;28;20145;-79
2022/01/11 05:42:40;;;;;;;43.40;21.92;;;1.50;99.90;;;;;;5093532;28;20067;-78
2022/01/11 05:45:07;;;;;;;40.22;20.88;;;1.50;99.90;;;;;;5094113;28;20026;-79
2022/01/11 05:47:34;;;;;;;34.53;21.55;;;1.50;99.90;;;;;;5093904;28;20032;-79
2022/01/11 05:50:01;;;;;;;38.13;20.30;;;1.50;99.90;;;;;;5093716;28;20078;-78
2022/01/11 05:52:30;;;;;;;40.60;22.08;;;1.60;99.90;;;;;;5093898;28;20024;-79
2022/01/11 05:54:57;;;;;;;33.65;20.83;;;1.60;99.90;;;;;;5093723;28;20077;-79
2022/01/11 05:57:23;;;;;;;38.83;20.67;;;1.70;99.90;;;;;;5093436;28;20056;-79
2022/01/11 05:59:49;;;;;;;40.03;20.88;;;1.70;99.90;;;;;;5093543;28;20138;-78
2022/01/11 06:02:15;;;;;;;36.88;20.65;;;1.70;99.90;;;;;;5093507;28;20055;-80
2022/01/11 06:04:42;;;;;;;35.80;20.35;;;1.70;99.90;;;;;;5093391;28;20051;-79
2022/01/11 06:07:10;;;;;;;36.97;19.30;;;1.70;99.90;;;;;;5093563;28;20018;-80
2022/01/11 06:09:36;;;;;;;39.53;20.92;;;1.80;99.90;;;;;;5093191;28;20115;-79
2022/01/11 06:12:03;;;;;;;35.40;18.23;;;1.80;99.90;;;;;;5093126;28;20142;-79
2022/01/11 06:14:29;;;;;;;31.40;19.40;;;1.80;99.90;;;;;;5093206;28;20404;-80
2022/01/11 06:16:55;;;;;;;41.03;20.33;;;1.80;99.90;;;;;;5076604;28;20035;-78
2022/01/11 06:19:22;;;;;;;27.75;17.58;;;1.80;99.90;;;;;;5092952;28;20488;-79
2022/01/11 06:21:57;;;;;;;34.63;17.73;;;1.80;99.90;;;;;;5093088;28;20032;-79
2022/01/11 06:24:23;;;;;;;32.90;18.05;;;1.80;99.90;;;;;;5093082;28;20036;-79
2022/01/11 06:26:49;;;;;;;32.95;18.85;;;1.90;99.90;;;;;;5092677;28;20392;-78
2022/01/11 06:29:14;;;;;;;33.88;18.20;;;1.90;99.90;;;;;;5094294;28;20043;-79
2022/01/11 06:31:40;;;;;;;33.00;17.23;;;1.90;99.90;;;;;;5092833;28;20080;-76
2022/01/11 06:34:06;;;;;;;33.20;17.35;;;2.10;99.90;;;;;;5092902;28;20028;-80
2022/01/11 06:36:32;;;;;;;28.80;16.58;;;2.00;99.90;;;;;;5075946;28;20469;-79
2022/01/11 06:38:57;;;;;;;33.97;18.48;;;2.00;99.90;;;;;;5092736;28;20052;-77
2022/01/11 06:41:27;;;;;;;33.47;16.95;;;1.90;99.90;;;;;;5092607;28;20035;-73
2022/01/11 06:43:54;;;;;;;28.25;16.30;;;1.80;99.90;;;;;;5087480;28;20029;-79
2022/01/11 06:46:23;;;;;;;29.13;15.50;;;1.80;99.90;;;;;;5081485;28;20028;-80
2022/01/11 06:48:52;;;;;;;28.95;17.65;;;1.70;99.90;;;;;;5072289;28;20067;-79
2022/01/11 06:51:19;;;;;;;25.77;16.38;;;1.70;99.90;;;;;;5072416;28;20025;-79
2022/01/11 06:53:47;;;;;;;28.70;15.88;;;1.70;99.90;;;;;;5072162;28;20393;-78
2022/01/11 06:56:14;;;;;;;29.95;16.48;;;1.70;99.90;;;;;;5071928;28;20025;-78
2022/01/11 06:58:40;;;;;;;28.95;16.92;;;1.80;99.90;;;;;;5072073;28;20115;-77
2022/01/11 07:01:06;;;;;;;23.25;15.45;;;1.80;99.90;;;;;;5072014;28;20100;-78
2022/01/11 07:03:34;;;;;;;36.80;17.30;;;1.80;99.90;;;;;;5072032;28;20043;-77
2022/01/11 07:06:19;;;;;;;25.15;14.82;;;1.80;99.90;;;;;;5071849;28;20047;-78
2022/01/11 07:08:45;;;;;;;29.83;17.13;;;1.80;99.90;;;;;;5073629;28;20397;-77
2022/01/11 07:11:12;;;;;;;27.55;16.70;;;1.80;99.90;;;;;;5092002;28;20387;-80
2022/01/11 07:13:39;;;;;;;27.17;15.18;;;1.80;99.90;;;;;;5092312;28;20019;-80
2022/01/11 07:16:05;;;;;;;27.80;16.58;;;1.80;99.90;;;;;;5092058;28;20060;-78
2022/01/11 07:18:31;;;;;;;28.73;16.60;;;1.80;99.90;;;;;;5092196;28;20337;-78
2022/01/11 07:21:02;;;;;;;29.13;16.80;;;1.90;99.90;;;;;;5091913;28;20036;-79
2022/01/11 07:23:29;;;;;;;29.48;16.40;;;1.90;99.90;;;;;;5091961;28;20127;-79
2022/01/11 07:25:55;;;;;;;37.65;15.45;;;2.00;99.90;;;;;;5091328;28;20104;-78
2022/01/11 07:28:23;;;;;;;28.60;15.75;;;2.00;99.90;;;;;;5091882;28;20053;-78
2022/01/11 07:30:51;;;;;;;31.88;17.38;;;2.00;99.90;;;;;;5091680;28;20464;-80
2022/01/11 07:33:17;;;;;;;33.03;16.65;;;2.00;99.90;;;;;;5092106;28;20115;-79
2022/01/11 07:35:45;;;;;;;29.40;16.55;;;2.00;99.90;;;;;;5091701;28;20019;-79
2022/01/11 07:38:11;;;;;;;33.30;16.20;;;1.90;99.90;;;;;;5074803;28;20464;-79
2022/01/11 07:40:38;;;;;;;31.33;17.40;;;2.00;99.90;;;;;;5091588;28;20028;-77
2022/01/11 07:43:16;;;;;;;32.80;16.80;;;2.00;99.90;;;;;;5091815;28;20032;-79
2022/01/11 07:45:52;;;;;;;28.50;17.08;;;2.00;99.90;;;;;;5091907;28;20020;-79
2022/01/11 07:48:20;;;;;;;35.17;17.33;;;2.00;99.90;;;;;;5092161;28;20020;-80
2022/01/11 07:50:54;;;;;;;36.53;17.70;;;2.00;99.90;;;;;;5091971;28;20380;-80
2022/01/11 07:53:20;;;;;;;40.28;18.67;;;2.00;99.90;;;;;;5074652;28;20032;-80
2022/01/11 07:55:52;;;;;;;31.23;16.80;;;2.00;99.90;;;;;;5091477;28;20027;-80
2022/01/11 07:58:20;;;;;;;34.88;18.52;;;1.90;99.90;;;;;;5091875;28;20028;-80
2022/01/11 08:00:46;;;;;;;33.00;16.40;;;2.00;99.90;;;;;;5091584;28;20045;-79
2022/01/11 08:03:15;;;;;;;31.95;17.88;;;2.10;99.90;;;;;;5094601;28;20040;-79
2022/01/11 08:05:54;;;;;;;35.63;17.95;;;2.00;99.90;;;;;;5095610;28;20097;-80
2022/01/11 08:08:25;;;;;;;30.08;17.08;;;2.00;99.90;;;;;;5079577;28;20102;-79
2022/01/11 08:10:53;;;;;;;34.67;16.85;;;2.10;99.90;;;;;;5095311;28;20480;-78
2022/01/11 08:13:20;;;;;;;37.17;18.75;;;2.10;99.90;;;;;;5095997;28;20434;-78
2022/01/11 08:15:46;;;;;;;37.38;17.77;;;2.10;99.90;;;;;;5095518;28;20353;-78
2022/01/11 08:18:12;;;;;;;33.00;17.48;;;2.20;99.90;;;;;;5095504;28;20031;-79
2022/01/11 08:20:42;;;;;;;31.05;16.95;;;2.20;99.90;;;;;;5095460;28;20034;-78
2022/01/11 08:23:10;;;;;;;31.63;18.52;;;2.10;99.90;;;;;;5095022;28;20035;-78
2022/01/11 08:25:36;;;;;;;38.30;19.60;;;2.20;99.90;;;;;;5096816;28;20492;-79
2022/01/11 08:28:03;;;;;;;31.40;16.92;;;2.20;99.90;;;;;;5096407;28;20051;-80
2022/01/11 08:30:31;;;;;;;34.35;17.42;;;2.20;99.90;;;;;;5095371;28;20389;-78
2022/01/11 08:33:04;;;;;;;41.17;18.30;;;2.30;99.90;;;;;;5095202;28;20028;-79
2022/01/11 08:35:32;;;;;;;38.13;18.40;;;2.30;99.90;;;;;;5095351;28;20107;-79
2022/01/11 08:37:58;;;;;;;39.85;19.08;;;2.40;99.90;;;;;;5094730;28;20028;-79
2022/01/11 08:40:25;;;;;;;34.17;18.27;;;2.40;99.90;;;;;;5095338;28;20103;-79
2022/01/11 08:42:54;;;;;;;39.95;19.45;;;2.40;99.90;;;;;;5094661;28;20552;-78
2022/01/11 08:45:21;;;;;;;38.47;19.25;;;2.50;99.90;;;;;;5095264;28;20488;-79
2022/01/11 08:47:49;;;;;;;40.30;19.95;;;2.60;99.90;;;;;;5094932;28;20034;-79
2022/01/11 08:50:16;;;;;;;38.30;17.95;;;2.70;99.90;;;;;;5094932;28;20127;-78
2022/01/11 08:52:45;;;;;;;36.50;18.73;;;2.70;99.90;;;;;;5094580;28;20039;-78
2022/01/11 08:55:16;;;;;;;41.13;18.27;;;2.70;99.90;;;;;;5094946;28;20168;-79
2022/01/11 08:57:44;;;;;;;39.58;18.48;;;2.70;99.90;;;;;;5094808;28;20149;-79
2022/01/11 09:00:16;;;;;;;35.47;17.92;;;2.80;99.90;;;;;;5094784;28;20036;-79
2022/01/11 09:02:50;;;;;;;38.58;20.25;;;2.90;99.90;;;;;;5094640;28;20032;-81
2022/01/11 09:05:16;;;;;;;36.92;19.80;;;3.00;99.90;;;;;;5094396;28;20036;-80
2022/01/11 09:07:42;;;;;;;40.47;19.30;;;2.90;99.90;;;;;;5094591;28;20020;-80
2022/01/11 09:10:09;;;;;;;42.22;18.55;;;3.00;99.90;;;;;;5094278;28;20066;-81
2022/01/11 09:12:35;;;;;;;37.60;19.10;;;3.00;99.90;;;;;;5094628;28;20071;-79
2022/01/11 09:15:04;;;;;;;38.63;20.50;;;3.00;99.90;;;;;;5094557;28;20057;-80
2022/01/11 09:17:30;;;;;;;41.08;21.27;;;3.00;99.90;;;;;;5094432;28;20458;-80
2022/01/11 09:19:57;;;;;;;38.80;19.90;;;2.90;99.90;;;;;;5093867;28;20066;-80
2022/01/11 09:22:24;;;;;;;35.65;19.20;;;3.00;99.90;;;;;;5094078;28;20387;-79
2022/01/11 09:24:51;;;;;;;37.70;19.00;;;3.00;99.90;;;;;;5094493;28;20111;-79
2022/01/11 09:27:20;;;;;;;43.05;20.83;;;3.00;99.90;;;;;;5094168;28;20111;-80
2022/01/11 09:29:48;;;;;;;38.53;20.58;;;2.90;99.90;;;;;;5094161;28;20032;-79
2022/01/11 09:32:16;;;;;;;40.15;19.27;;;2.90;99.90;;;;;;5094148;28;20375;-81
2022/01/11 09:34:43;;;;;;;38.97;18.35;;;2.90;99.90;;;;;;5093831;28;20058;-80
2022/01/11 09:37:15;;;;;;;41.03;19.38;;;2.90;99.90;;;;;;5094094;28;20101;-80
2022/01/11 09:39:43;;;;;;;42.60;19.27;;;2.80;99.90;;;;;;5077112;28;20468;-80
2022/01/11 09:42:09;;;;;;;39.22;20.13;;;2.90;99.90;;;;;;5094015;28;20361;-79
2022/01/11 09:44:40;;;;;;;39.92;20.65;;;3.00;99.90;;;;;;5093883;28;20020;-80
2022/01/11 09:47:09;;;;;;;40.13;20.20;;;3.00;99.90;;;;;;5093964;28;20069;-79
2022/01/11 09:49:35;;;;;;;39.30;20.17;;;3.10;99.90;;;;;;5093712;28;20020;-78
2022/01/11 09:52:06;;;;;;;42.80;20.27;;;3.10;99.90;;;;;;5093689;28;20031;-78
2022/01/11 09:54:37;;;;;;;;;;;3.20;99.90;;;;;;5077524;28;20043;-79
2022/01/11 09:57:05;;;;;;;46.00;21.02;;;3.10;99.90;;;;;;5093812;28;20288;-77
2022/01/11 09:59:32;;;;;;;41.38;20.75;;;3.10;99.90;;;;;;5093378;28;20024;-79
2022/01/11 10:02:17;;;;;;;34.05;18.13;;;3.00;99.90;;;;;;5094742;28;20051;-78
2022/01/11 10:04:59;;;;;;;38.88;19.13;;;3.10;99.90;;;;;;5093489;28;20092;-78
2022/01/11 10:07:40;;;;;;;40.22;19.70;;;3.10;99.90;;;;;;5093456;28;20028;-77
2022/01/11 10:10:12;;;;;;;32.33;15.07;;;3.20;99.90;;;;;;5093017;28;20031;-79
2022/01/11 10:12:54;;;;;;;38.33;19.40;;;3.30;99.90;;;;;;5093285;28;20093;-77
2022/01/11 10:15:29;;;;;;;40.05;18.55;;;3.20;99.90;;;;;;5093099;28;20031;-80
2022/01/11 10:17:59;;;;;;;39.55;18.85;;;3.20;99.90;;;;;;5093166;28;20024;-80
2022/01/11 10:20:29;;;;;;;39.22;20.60;;;3.20;99.90;;;;;;5076572;28;20032;-78
2022/01/11 10:23:07;;;;;;;38.05;19.27;;;3.20;99.90;;;;;;5077456;28;20032;-81
2022/01/11 10:25:46;;;;;;;39.60;18.38;;;3.20;99.90;;;;;;5092227;28;20024;-73
2022/01/11 10:28:13;;;;;;;41.65;19.17;;;3.30;99.90;;;;;;5092988;28;20433;-79
2022/01/11 10:30:42;;;;;;;35.15;19.20;;;3.40;99.90;;;;;;5092833;28;20428;-78
2022/01/11 10:33:10;;;;;;;38.13;19.60;;;3.50;99.90;;;;;;5092651;28;20715;-79
2022/01/11 10:35:44;;;;;;;37.92;19.42;;;3.60;99.90;;;;;;5076866;28;20024;-79
2022/01/11 10:38:25;;;;;;;41.42;19.20;;;3.60;99.90;;;;;;5092925;28;20024;-79
2022/01/11 10:40:52;;;;;;;37.97;18.50;;;3.70;99.90;;;;;;5092769;28;20028;-79
2022/01/11 10:43:21;;;;;;;41.78;19.48;;;3.90;99.90;;;;;;5092739;28;20036;-78
2022/01/11 10:45:56;;;;;;;38.72;17.80;;;4.00;99.90;;;;;;5092574;28;20024;-79
2022/01/11 10:48:30;;;;;;;37.95;18.77;;;4.00;99.90;;;;;;5092396;28;20540;-79
2022/01/11 10:51:02;;;;;;;34.13;17.73;;;4.00;99.90;;;;;;5092793;28;20358;-82
2022/01/11 10:53:39;;;;;;;39.22;19.58;;;4.00;99.90;;;;;;5092460;28;20384;-81
2022/01/11 10:56:08;;;;;;;33.30;16.98;;;4.00;99.90;;;;;;5092290;28;20028;-80
2022/01/11 10:58:40;;;;;;;37.22;17.98;;;4.00;99.90;;;;;;5092319;28;20024;-81
2022/01/11 11:01:09;;;;;;;44.95;19.75;;;4.00;99.90;;;;;;5091875;28;20414;-80
2022/01/11 11:03:36;;;;;;;37.95;17.73;;;4.10;99.90;;;;;;5093371;28;20032;-81
2022/01/11 11:06:10;;;;;;;38.33;18.90;;;4.30;99.90;;;;;;5091868;28;20031;-77
2022/01/11 11:08:45;;;;;;;35.78;17.48;;;4.10;99.90;;;;;;5091864;28;20032;-81
2022/01/11 11:11:31;;;;;;;42.92;17.65;;;4.20;99.90;;;;;;5092902;28;20036;-80
2022/01/11 11:14:54;;;;;;;35.97;18.67;;;4.30;99.90;;;;;;5089273;28;20044;-80
2022/01/11 11:17:30;;;;;;;36.63;16.83;;;4.30;99.90;;;;;;5075027;28;20089;-81
2022/01/11 11:20:07;;;;;;;36.17;17.15;;;4.10;99.90;;;;;;5091768;28;20039;-81
2022/01/11 11:22:33;;;;;;;40.90;18.52;;;4.00;99.90;;;;;;5093342;28;20020;-81
2022/01/11 11:24:59;;;;;;;37.55;17.83;;;4.20;99.90;;;;;;5091806;28;20036;-81
2022/01/11 11:27:28;;;;;;;31.40;16.67;;;4.30;99.90;;;;;;5092953;28;20028;-82
2022/01/11 11:29:54;;;;;;;36.75;17.95;;;4.50;99.90;;;;;;5092970;28;20460;-81
2022/01/11 11:32:21;;;;;;;33.20;17.65;;;4.20;99.90;;;;;;5092941;28;20225;-81
2022/01/11 11:34:51;;;;;;;38.42;17.98;;;4.30;99.90;;;;;;5093248;28;20036;-81
2022/01/11 11:37:47;;;;;;;36.78;19.30;;;4.40;99.90;;;;;;5092060;28;20495;-82
2022/01/11 11:40:14;;;;;;;37.22;17.40;;;4.60;99.90;;;;;;5088307;28;20071;-81
2022/01/11 11:42:40;;;;;;;39.45;18.48;;;4.70;99.90;;;;;;5092911;28;20358;-81
2022/01/11 11:45:36;;;;;;;35.95;17.20;;;5.00;99.90;;;;;;5092778;28;20028;-80
2022/01/11 11:48:17;;;;;;;35.60;17.75;;;5.00;99.90;;;;;;5088339;28;20055;-81
2022/01/11 11:50:58;;;;;;;34.35;16.92;;;4.80;99.90;;;;;;5093083;28;20031;-81
2022/01/11 11:53:28;;;;;;;34.65;18.02;;;4.80;99.90;;;;;;5092751;28;20027;-80
2022/01/11 11:56:13;;;;;;;36.17;17.92;;;4.90;99.90;;;;;;5092713;28;20041;-81
2022/01/11 11:58:45;;;;;;;32.38;16.55;;;4.80;99.90;;;;;;5091637;28;20032;-79
2022/01/11 12:01:41;;;;;;;38.60;18.10;;;5.20;99.90;;;;;;5092402;28;20036;-81
2022/01/11 12:04:17;;;;;;;33.38;17.45;;;5.20;99.90;;;;;;5092582;28;20039;-81
2022/01/11 12:06:44;;;;;;;31.70;17.20;;;5.20;99.90;;;;;;5092518;28;20089;-82
2022/01/11 12:09:12;;;;;;;38.28;17.70;;;5.20;99.90;;;;;;5092614;28;20032;-81
2022/01/11 12:11:57;;;;;;;34.80;17.10;;;5.30;99.90;;;;;;5092566;28;20518;-81
2022/01/11 12:14:35;;;;;;;35.35;17.40;;;5.30;99.90;;;;;;5092270;28;20064;-81
2022/01/11 12:17:17;;;;;;;37.30;17.52;;;5.30;99.90;;;;;;5091378;28;20069;-83
2022/01/11 12:19:42;;;;;;;;;;;6.10;99.90;;;;;;5093011;28;20388;-82
2022/01/11 12:22:08;;;;;;;27.08;14.90;;;7.40;99.90;;;;;;5092388;28;19908;-81
2022/01/11 12:24:44;;;;;;;28.23;15.65;;;8.00;99.90;;;;;;5091270;28;20044;-82
2022/01/11 12:27:11;;;;;;;31.38;16.15;;;7.90;99.90;;;;;;5092434;28;20077;-82
2022/01/11 12:29:51;;;;;;;32.90;15.35;;;8.50;99.90;;;;;;5092263;28;20024;-79
2022/01/11 12:32:19;;;;;;;32.05;14.35;;;9.30;99.90;;;;;;5092487;28;20035;-82
2022/01/11 12:34:50;;;;;;;27.88;14.45;;;9.30;99.90;;;;;;5091383;28;20499;-82
2022/01/11 12:37:27;;;;;;;25.90;14.52;;;9.00;99.90;;;;;;5091272;28;20106;-82
2022/01/11 12:40:22;;;;;;;30.80;15.80;;;8.70;99.90;;;;;;5092447;28;20036;-83
2022/01/11 12:42:50;;;;;;;31.10;14.70;;;9.10;99.90;;;;;;5089618;28;20133;-83
2022/01/11 12:47:48;;;;;;;25.48;14.43;;;9.00;99.90;;;;;;5092577;28;20069;-83
2022/01/11 12:50:18;;;;;;;27.40;14.60;;;8.80;99.90;;;;;;5094620;28;20388;-84
2022/01/11 12:52:45;;;;;;;27.17;13.93;;;8.90;99.90;;;;;;5096285;28;20059;-82